Kezdőlap
METAR-TAF:

METAR-TAF

Repülőterek :

Alpnach, Svájc

földrajzi szélesség: 46-56-19N, földrajzi hosszúság: 8-17-03E, magasság: 440 m

Jelenlegi meteorológiai megfigyelések

A jelentés 31 perccel ezelõtt készült, 18:50 UTC
Nyugat-délnyugati szél 4 kt, dél-délnyugati és nyugati között változik
Hőmérséklet 1°C
Páratartalom 93%
Légköri nyomás 996 hPa
Látótávolság: 6000 m
Kevés felhő 700 lábon
Szakadozott felhőzet 1100 lábon
Borult 1300 lábon
enyhe záporok, hó

METAR: LSMA 231850Z AUTO 24004KT 200V260 6000NDV -SHRASN FEW007 BKN011 OVC013 01/M00 Q0996 RMK

Idő: 20:21 (19:21 UTC)


TAF: hiányzik

Meteorológiai megfigyelések és előrejelzések több, mint 4000 repülőtéren (METAR és TAF jelentéseket).

A térképen piros és sárga pontok jelzik az elérhető meteorológiai állomásokat.

Mozgassa az egeret a pont fölött, hogy megjelenjen az állomás neve.

Azután kattintson az időjárási megfigyelések és előrejelzések megtekintéséhez.

A térkép megváltoztatása: kattintson a fekete keresztel jelölt zöld gombra ráközelítéshez, a vonallal jelölt zöld gombra távolításhoz, vagy a zöld nyilakra a szomszédos térképek eléréséhez.


METAR-TAF: